createdAt,value
2023-04-04T00:02:04.304Z,4.68
2023-04-04T00:04:33.770Z,4.68
2023-04-04T00:07:02.148Z,4.68
2023-04-04T00:09:31.176Z,4.68
2023-04-04T00:12:00.869Z,4.68
2023-04-04T00:14:29.782Z,4.69
2023-04-04T00:16:57.881Z,4.70
2023-04-04T00:19:26.671Z,4.72
2023-04-04T00:21:55.334Z,4.71
2023-04-04T00:24:23.433Z,4.69
2023-04-04T00:26:51.824Z,4.67
2023-04-04T00:29:24.083Z,4.67
2023-04-04T00:31:52.336Z,4.66
2023-04-04T00:34:20.727Z,4.65
2023-04-04T00:36:48.873Z,4.64
2023-04-04T00:39:17.418Z,4.64
2023-04-04T00:41:45.661Z,4.62
2023-04-04T00:44:13.729Z,4.62
2023-04-04T00:46:41.937Z,4.63
2023-04-04T00:49:10.379Z,4.64
2023-04-04T00:51:38.557Z,4.65
2023-04-04T00:54:06.731Z,4.65
2023-04-04T00:56:36.300Z,4.66
2023-04-04T00:59:04.467Z,4.67
2023-04-04T01:01:33.293Z,4.69
2023-04-04T01:04:03.382Z,4.71
2023-04-04T01:06:33.044Z,4.72
2023-04-04T01:09:01.646Z,4.72
2023-04-04T01:11:31.033Z,4.71
2023-04-04T01:13:59.569Z,4.72
2023-04-04T01:16:33.417Z,4.73
2023-04-04T01:19:01.758Z,4.73
2023-04-04T01:21:30.862Z,4.72
2023-04-04T01:24:00.159Z,4.73
2023-04-04T01:26:33.758Z,4.73
2023-04-04T01:29:04.659Z,4.72
2023-04-04T01:31:42.424Z,4.72
2023-04-04T01:34:36.804Z,4.70
2023-04-04T01:37:16.795Z,4.69
2023-04-04T01:39:56.436Z,4.70
2023-04-04T01:42:25.384Z,4.69
2023-04-04T01:44:56.231Z,4.69
2023-04-04T01:47:26.127Z,4.69
2023-04-04T01:49:54.817Z,4.67
2023-04-04T01:52:23.878Z,4.67
2023-04-04T01:54:54.329Z,4.66
2023-04-04T01:57:22.599Z,4.65
2023-04-04T01:59:50.765Z,4.65
2023-04-04T02:02:19.194Z,4.65
2023-04-04T02:04:47.995Z,4.63
2023-04-04T02:07:18.592Z,4.61
2023-04-04T02:09:47.640Z,4.59
2023-04-04T02:12:15.936Z,4.57
2023-04-04T02:14:44.021Z,4.56
2023-04-04T02:17:12.674Z,4.54
2023-04-04T02:19:41.065Z,4.53
2023-04-04T02:22:09.214Z,4.51
2023-04-04T02:24:38.130Z,4.49
2023-04-04T02:27:06.859Z,4.47
2023-04-04T02:29:36.594Z,4.47
2023-04-04T02:32:04.722Z,4.47
2023-04-04T02:34:33.397Z,4.47
2023-04-04T02:37:02.327Z,4.45
2023-04-04T02:39:31.052Z,4.44
2023-04-04T02:41:59.994Z,4.45
2023-04-04T02:44:28.488Z,4.45
2023-04-04T02:47:02.834Z,4.46
2023-04-04T02:49:33.007Z,4.46
2023-04-04T02:52:01.827Z,4.45
2023-04-04T02:54:34.588Z,4.44
2023-04-04T02:57:04.945Z,4.42
2023-04-04T02:59:33.424Z,4.41
2023-04-04T03:02:01.904Z,4.38
2023-04-04T03:04:30.803Z,4.37
2023-04-04T03:06:59.596Z,4.35
2023-04-04T03:09:27.649Z,4.34
2023-04-04T03:11:55.973Z,4.33
2023-04-04T03:14:26.624Z,4.32
2023-04-04T03:16:57.003Z,4.31
2023-04-04T03:19:25.566Z,4.33
2023-04-04T03:21:54.038Z,4.33
2023-04-04T03:24:22.783Z,4.33
2023-04-04T03:26:54.741Z,4.34
2023-04-04T03:29:23.203Z,4.34
2023-04-04T03:31:51.270Z,4.33
2023-04-04T03:34:19.701Z,4.33
2023-04-04T03:36:53.845Z,4.33
2023-04-04T03:39:22.816Z,4.34
2023-04-04T03:41:51.896Z,4.35
2023-04-04T03:44:19.966Z,4.33
2023-04-04T03:46:48.074Z,4.31
2023-04-04T03:49:17.060Z,4.30
2023-04-04T03:51:45.557Z,4.28
2023-04-04T03:54:13.672Z,4.28
2023-04-04T03:56:43.952Z,4.28
2023-04-04T03:59:12.751Z,4.27
2023-04-04T04:01:40.905Z,4.26
2023-04-04T04:04:11.902Z,4.26
2023-04-04T04:06:44.059Z,4.27
2023-04-04T04:09:12.884Z,4.26
2023-04-04T04:11:40.980Z,4.25
2023-04-04T04:14:09.304Z,4.25
2023-04-04T04:16:41.724Z,4.25
2023-04-04T04:19:10.783Z,4.25
2023-04-04T04:21:42.679Z,4.25
2023-04-04T04:24:12.088Z,4.28
2023-04-04T04:26:40.156Z,4.31
2023-04-04T04:29:09.397Z,4.34
2023-04-04T04:31:39.646Z,4.37
2023-04-04T04:34:08.997Z,4.39
2023-04-04T04:36:39.649Z,4.39
2023-04-04T04:39:20.698Z,4.40
2023-04-04T04:42:07.584Z,4.40
2023-04-04T04:44:38.216Z,4.41
2023-04-04T04:47:06.373Z,4.40
2023-04-04T04:49:43.708Z,4.40
2023-04-04T04:52:13.732Z,4.40
2023-04-04T04:54:46.989Z,4.40
2023-04-04T04:57:15.044Z,4.39
2023-04-04T04:59:44.709Z,4.39
2023-04-04T05:02:16.341Z,4.38
2023-04-04T05:04:45.895Z,4.37
2023-04-04T05:07:15.360Z,4.35
2023-04-04T05:09:51.105Z,4.36
2023-04-04T05:12:21.381Z,4.39
2023-04-04T05:14:51.154Z,4.41
2023-04-04T05:17:23.494Z,4.43
2023-04-04T05:19:53.909Z,4.45
2023-04-04T05:22:23.160Z,4.48
2023-04-04T05:24:53.991Z,4.50
2023-04-04T05:27:24.761Z,4.51
2023-04-04T05:29:59.234Z,4.52
2023-04-04T05:32:36.353Z,4.51
2023-04-04T05:35:09.655Z,4.48
2023-04-04T05:37:41.087Z,4.46
2023-04-04T05:40:15.701Z,4.47
2023-04-04T05:42:54.811Z,4.50
2023-04-04T05:45:26.047Z,4.53
2023-04-04T05:47:54.428Z,4.54
2023-04-04T05:50:25.838Z,4.55
2023-04-04T05:53:03.010Z,4.57
2023-04-04T05:55:31.782Z,4.57
2023-04-04T05:58:04.028Z,4.58
2023-04-04T06:00:45.402Z,4.61
2023-04-04T06:03:14.329Z,4.63
2023-04-04T06:05:44.467Z,4.62
2023-04-04T06:08:14.545Z,4.62
2023-04-04T06:10:42.739Z,4.62
2023-04-04T06:13:11.197Z,4.62
2023-04-04T06:15:41.062Z,4.63
2023-04-04T06:18:09.428Z,4.63
2023-04-04T06:20:37.967Z,4.65
2023-04-04T06:23:06.724Z,4.68
2023-04-04T06:25:37.785Z,4.71
2023-04-04T06:28:08.070Z,4.74
2023-04-04T06:30:40.749Z,4.77
2023-04-04T06:33:11.880Z,4.80
2023-04-04T06:35:44.724Z,4.80
2023-04-04T06:38:13.368Z,4.80
2023-04-04T06:40:42.731Z,4.80
2023-04-04T06:43:11.609Z,4.79
2023-04-04T06:45:44.091Z,4.80
2023-04-04T06:48:13.544Z,4.80
2023-04-04T06:50:41.943Z,4.80
2023-04-04T06:53:14.987Z,4.81
2023-04-04T06:55:43.431Z,4.81
2023-04-04T06:58:19.068Z,4.83
2023-04-04T07:00:47.601Z,4.87
2023-04-04T07:03:17.875Z,4.89
2023-04-04T07:05:46.614Z,4.91
2023-04-04T07:08:15.697Z,4.94
2023-04-04T07:10:44.128Z,4.97
2023-04-04T07:13:13.408Z,4.96
2023-04-04T07:15:48.884Z,4.98
2023-04-04T07:18:17.152Z,5.00
2023-04-04T07:20:48.615Z,5.02
2023-04-04T07:23:19.592Z,5.03
2023-04-04T07:25:50.132Z,5.03
2023-04-04T07:28:20.459Z,5.04
2023-04-04T07:30:49.802Z,5.08
2023-04-04T07:33:24.738Z,5.10
2023-04-04T07:35:54.883Z,5.09
2023-04-04T07:38:29.791Z,5.09
2023-04-04T07:41:02.411Z,5.09
2023-04-04T07:43:37.408Z,5.09
2023-04-04T07:46:10.538Z,5.12
2023-04-04T07:48:43.059Z,5.12
2023-04-04T07:51:15.124Z,5.09
2023-04-04T07:53:44.389Z,5.09
2023-04-04T07:56:19.676Z,5.14
2023-04-04T07:58:49.507Z,5.21
2023-04-04T08:01:17.648Z,5.26
2023-04-04T08:03:47.181Z,5.31
2023-04-04T08:06:15.669Z,5.35
2023-04-04T08:08:47.301Z,5.42
2023-04-04T08:11:15.686Z,5.45
2023-04-04T08:13:51.853Z,5.51
2023-04-04T08:16:28.716Z,5.58
2023-04-04T08:19:01.214Z,5.65
2023-04-04T08:21:34.595Z,5.67
2023-04-04T08:24:07.951Z,5.70
2023-04-04T08:26:38.687Z,5.79
2023-04-04T08:29:07.850Z,5.85
2023-04-04T08:31:36.693Z,5.91
2023-04-04T08:34:08.227Z,5.97
2023-04-04T08:36:38.529Z,6.03
2023-04-04T08:39:07.696Z,6.09
2023-04-04T08:41:36.838Z,6.11
2023-04-04T08:44:08.068Z,6.12
2023-04-04T08:46:43.381Z,6.14
2023-04-04T08:49:15.158Z,6.15
2023-04-04T08:51:44.791Z,6.15
2023-04-04T08:54:15.045Z,6.16
2023-04-04T08:56:43.680Z,6.17
2023-04-04T08:59:16.046Z,6.18
2023-04-04T09:01:45.435Z,6.20
2023-04-04T09:04:15.200Z,6.24
2023-04-04T09:06:44.434Z,6.26
2023-04-04T09:09:12.492Z,6.29
2023-04-04T09:11:46.040Z,6.31
2023-04-04T09:14:16.172Z,6.31
2023-04-04T09:16:44.364Z,6.32
2023-04-04T09:19:13.326Z,6.35
2023-04-04T09:21:41.684Z,6.38
2023-04-04T09:24:11.474Z,6.40
2023-04-04T09:26:51.960Z,6.41
2023-04-04T09:29:21.449Z,6.48
2023-04-04T09:31:50.515Z,6.57
2023-04-04T09:34:19.637Z,6.63
2023-04-04T09:36:47.892Z,6.69
2023-04-04T09:39:21.138Z,6.74
2023-04-04T09:41:50.591Z,6.79
2023-04-04T09:44:19.960Z,6.82
2023-04-04T09:46:52.744Z,6.83
2023-04-04T09:49:33.593Z,6.82
2023-04-04T09:52:02.901Z,6.85
2023-04-04T09:54:31.592Z,6.87
2023-04-04T09:57:01.981Z,6.91
2023-04-04T09:59:30.858Z,6.95
2023-04-04T10:02:02.373Z,6.98
2023-04-04T10:04:36.200Z,7.01
2023-04-04T10:07:06.553Z,7.00
2023-04-04T10:09:37.554Z,6.97
2023-04-04T10:12:09.962Z,6.96
2023-04-04T10:14:39.352Z,6.99
2023-04-04T10:17:10.718Z,7.01
2023-04-04T10:19:38.867Z,7.10
2023-04-04T10:22:10.522Z,7.19
2023-04-04T10:24:38.756Z,7.30
2023-04-04T10:27:07.732Z,7.39
2023-04-04T10:29:38.602Z,7.46
2023-04-04T10:32:08.275Z,7.47
2023-04-04T10:34:46.181Z,7.39
2023-04-04T10:37:18.836Z,7.35
2023-04-04T10:40:05.959Z,7.44
2023-04-04T10:42:47.207Z,7.62
2023-04-04T10:45:21.132Z,7.81
2023-04-04T10:47:51.319Z,7.94
2023-04-04T10:50:21.475Z,8.02
2023-04-04T10:52:53.941Z,8.08
2023-04-04T10:55:23.901Z,8.14
2023-04-04T10:57:55.665Z,8.22
2023-04-04T11:00:25.013Z,8.28
2023-04-04T11:03:02.295Z,8.35
2023-04-04T11:05:43.188Z,8.41
2023-04-04T11:08:20.152Z,8.48
2023-04-04T11:10:49.371Z,8.54
2023-04-04T11:13:24.157Z,8.51
2023-04-04T11:16:15.726Z,8.49
2023-04-04T11:18:51.234Z,8.48
2023-04-04T11:21:20.815Z,8.46
2023-04-04T11:23:48.988Z,8.44
2023-04-04T11:26:35.499Z,8.42
2023-04-04T11:29:04.511Z,8.39
2023-04-04T11:31:47.922Z,8.33
2023-04-04T11:34:29.927Z,8.16
2023-04-04T11:37:01.996Z,8.03
2023-04-04T11:39:31.425Z,7.97
2023-04-04T11:42:14.052Z,7.99
2023-04-04T11:44:53.740Z,8.06
2023-04-04T11:47:25.054Z,8.08
2023-04-04T11:49:53.954Z,8.10
2023-04-04T11:52:24.041Z,8.11
2023-04-04T11:54:53.346Z,8.14
2023-04-04T11:57:24.978Z,8.15
2023-04-04T11:59:53.866Z,8.11
2023-04-04T12:02:45.826Z,7.96
2023-04-04T12:05:24.909Z,7.65
2023-04-04T12:07:53.232Z,7.54
2023-04-04T12:10:22.195Z,7.60
2023-04-04T12:12:50.493Z,7.66
2023-04-04T12:15:19.766Z,7.72
2023-04-04T12:17:49.287Z,7.77
2023-04-04T12:20:17.618Z,7.78
2023-04-04T12:22:50.578Z,7.75
2023-04-04T12:25:20.395Z,7.70
2023-04-04T12:27:51.094Z,7.59
2023-04-04T12:30:19.779Z,7.55
2023-04-04T12:32:48.610Z,7.54
2023-04-04T12:35:17.185Z,7.49
2023-04-04T12:37:59.019Z,7.51
2023-04-04T12:40:37.217Z,7.49
2023-04-04T12:43:09.217Z,7.42
2023-04-04T12:45:39.371Z,7.39
2023-04-04T12:48:14.197Z,7.38
2023-04-04T12:50:54.293Z,7.31
2023-04-04T12:53:29.948Z,7.32
2023-04-04T12:56:05.255Z,7.32
2023-04-04T12:58:36.996Z,7.34
2023-04-04T13:01:07.249Z,7.42
2023-04-04T13:03:38.104Z,7.51
2023-04-04T13:06:16.301Z,7.54
2023-04-04T13:08:53.952Z,7.57
2023-04-04T13:11:22.532Z,7.50
2023-04-04T13:14:02.822Z,7.52
2023-04-04T13:16:37.135Z,7.62
2023-04-04T13:19:05.578Z,7.74
2023-04-04T13:21:34.902Z,7.83
2023-04-04T13:24:04.234Z,7.88
2023-04-04T13:26:33.120Z,7.89
2023-04-04T13:29:01.928Z,7.94
2023-04-04T13:31:34.882Z,8.04
2023-04-04T13:34:03.591Z,8.04
2023-04-04T13:36:31.863Z,8.07
2023-04-04T13:39:00.747Z,8.01
2023-04-04T13:41:28.812Z,7.94
2023-04-04T13:43:58.517Z,7.85
2023-04-04T13:46:26.673Z,7.83
2023-04-04T13:48:54.745Z,7.87
2023-04-04T13:51:24.692Z,7.85
2023-04-04T13:53:52.851Z,7.85
2023-04-04T13:56:22.260Z,7.93
2023-04-04T13:58:51.082Z,7.95
2023-04-04T14:01:23.538Z,7.96
2023-04-04T14:03:52.713Z,8.00
2023-04-04T14:06:21.165Z,7.97
2023-04-04T14:08:49.291Z,7.95
2023-04-04T14:11:19.410Z,7.98
2023-04-04T14:13:48.703Z,7.96
2023-04-04T14:16:17.019Z,7.91
2023-04-04T14:18:46.396Z,7.82
2023-04-04T14:21:14.729Z,7.79
2023-04-04T14:23:42.823Z,7.80
2023-04-04T14:26:13.783Z,7.79
2023-04-04T14:28:42.324Z,7.76
2023-04-04T14:31:10.574Z,7.71
2023-04-04T14:33:38.921Z,7.64
2023-04-04T14:36:07.332Z,7.55
2023-04-04T14:38:35.576Z,7.51
2023-04-04T14:41:05.330Z,7.52
2023-04-04T14:43:35.544Z,7.51
2023-04-04T14:46:07.398Z,7.47
2023-04-04T14:48:35.745Z,7.44
2023-04-04T14:51:05.855Z,7.41
2023-04-04T14:53:34.482Z,7.39
2023-04-04T14:56:02.784Z,7.40
2023-04-04T14:58:34.055Z,7.39
2023-04-04T15:01:02.790Z,7.39
2023-04-04T15:03:31.957Z,7.38
2023-04-04T15:06:03.408Z,7.39
2023-04-04T15:08:32.799Z,7.34
2023-04-04T15:11:01.165Z,7.29
2023-04-04T15:13:30.747Z,7.30
2023-04-04T15:16:00.383Z,7.29
2023-04-04T15:18:28.619Z,7.29
2023-04-04T15:20:59.851Z,7.29
2023-04-04T15:23:28.246Z,7.28
2023-04-04T15:25:56.451Z,7.30
2023-04-04T15:28:27.346Z,7.32
2023-04-04T15:30:56.684Z,7.32
2023-04-04T15:33:24.723Z,7.33
2023-04-04T15:35:52.848Z,7.32
2023-04-04T15:38:21.598Z,7.31
2023-04-04T15:40:50.787Z,7.25
2023-04-04T15:43:18.925Z,7.15
2023-04-04T15:45:47.471Z,7.11
2023-04-04T15:48:15.904Z,7.11
2023-04-04T15:50:45.048Z,7.12
2023-04-04T15:53:13.769Z,7.12
2023-04-04T15:55:42.869Z,7.11
2023-04-04T15:58:10.952Z,7.12
2023-04-04T16:00:39.288Z,7.09
2023-04-04T16:03:14.071Z,7.06
2023-04-04T16:05:42.294Z,7.01
2023-04-04T16:08:16.345Z,6.93
2023-04-04T16:10:44.929Z,6.90
2023-04-04T16:13:13.483Z,6.88
2023-04-04T16:15:46.801Z,6.83
2023-04-04T16:18:16.149Z,6.78
2023-04-04T16:20:44.498Z,6.76
2023-04-04T16:23:18.545Z,6.72
2023-04-04T16:25:47.294Z,6.70
2023-04-04T16:28:15.693Z,6.72
2023-04-04T16:30:44.107Z,6.73
2023-04-04T16:33:12.668Z,6.72
2023-04-04T16:35:40.710Z,6.71
2023-04-04T16:38:09.181Z,6.71
2023-04-04T16:40:37.836Z,6.70
2023-04-04T16:43:06.166Z,6.65
2023-04-04T16:45:34.298Z,6.61
2023-04-04T16:48:02.679Z,6.62
2023-04-04T16:50:32.224Z,6.59
2023-04-04T16:53:01.052Z,6.56
2023-04-04T16:55:29.576Z,6.55
2023-04-04T16:57:58.523Z,6.51
2023-04-04T17:00:26.513Z,6.50
2023-04-04T17:03:02.481Z,6.50
2023-04-04T17:05:31.083Z,6.54
2023-04-04T17:07:59.237Z,6.58
2023-04-04T17:10:27.330Z,6.60
2023-04-04T17:12:58.311Z,6.58
2023-04-04T17:15:27.362Z,6.59
2023-04-04T17:17:56.243Z,6.57
2023-04-04T17:20:24.421Z,6.55
2023-04-04T17:22:54.033Z,6.53
2023-04-04T17:25:26.805Z,6.53
2023-04-04T17:27:55.790Z,6.50
2023-04-04T17:30:24.025Z,6.47
2023-04-04T17:32:54.478Z,6.44
2023-04-04T17:35:22.646Z,6.41
2023-04-04T17:37:52.238Z,6.39
2023-04-04T17:40:20.814Z,6.39
2023-04-04T17:42:49.320Z,6.40
2023-04-04T17:45:18.540Z,6.39
2023-04-04T17:47:47.082Z,6.39
2023-04-04T17:50:15.962Z,6.37
2023-04-04T17:52:44.194Z,6.39
2023-04-04T17:55:13.616Z,6.42
2023-04-04T17:57:44.879Z,6.37
2023-04-04T18:00:13.924Z,6.29
2023-04-04T18:02:44.731Z,6.27
2023-04-04T18:05:13.452Z,6.28
2023-04-04T18:07:42.120Z,6.26
2023-04-04T18:10:11.240Z,6.24
2023-04-04T18:12:44.162Z,6.23
2023-04-04T18:15:12.784Z,6.19
2023-04-04T18:17:42.527Z,6.19
2023-04-04T18:20:14.282Z,6.18
2023-04-04T18:22:47.432Z,6.08
2023-04-04T18:25:18.005Z,6.07
2023-04-04T18:27:46.319Z,6.12
2023-04-04T18:30:14.529Z,6.13
2023-04-04T18:32:43.097Z,6.07
2023-04-04T18:35:11.231Z,6.01
2023-04-04T18:37:41.154Z,6.00
2023-04-04T18:40:09.259Z,6.04
2023-04-04T18:42:38.046Z,6.09
2023-04-04T18:45:08.227Z,6.11
2023-04-04T18:47:38.025Z,6.10
2023-04-04T18:50:07.401Z,6.11
2023-04-04T18:52:36.561Z,6.08
2023-04-04T18:55:14.066Z,6.08
2023-04-04T18:57:48.515Z,6.09
2023-04-04T19:00:16.978Z,6.10
2023-04-04T19:02:49.922Z,6.11
2023-04-04T19:05:23.461Z,6.13
2023-04-04T19:07:53.846Z,6.16
2023-04-04T19:10:22.219Z,6.19
2023-04-04T19:12:51.223Z,6.22
2023-04-04T19:15:19.327Z,6.21
2023-04-04T19:17:51.108Z,6.12
2023-04-04T19:20:19.266Z,6.09
2023-04-04T19:22:47.401Z,6.07
2023-04-04T19:25:15.612Z,6.06
2023-04-04T19:27:43.821Z,6.04
2023-04-04T19:30:33.786Z,6.00
2023-04-04T19:33:03.470Z,5.92
2023-04-04T19:35:53.616Z,5.85
2023-04-04T19:38:24.872Z,5.80
2023-04-04T19:40:55.226Z,5.73
2023-04-04T19:43:24.180Z,5.73
2023-04-04T19:45:58.278Z,5.69
2023-04-04T19:48:43.723Z,5.68
2023-04-04T19:51:17.924Z,5.73
2023-04-04T19:53:50.713Z,5.76
2023-04-04T19:56:21.451Z,5.83
2023-04-04T19:59:02.231Z,5.89
2023-04-04T20:01:34.401Z,5.94
2023-04-04T20:04:09.921Z,5.97
2023-04-04T20:06:41.582Z,6.00
2023-04-04T20:09:40.251Z,6.01
2023-04-04T20:12:10.392Z,6.01
2023-04-04T20:14:40.189Z,6.02
2023-04-04T20:17:09.876Z,6.02
2023-04-04T20:19:38.460Z,6.02
2023-04-04T20:22:06.759Z,6.01
2023-04-04T20:24:35.269Z,6.03
2023-04-04T20:27:04.067Z,6.03
2023-04-04T20:29:37.384Z,6.00
2023-04-04T20:32:09.065Z,6.00
2023-04-04T20:34:42.586Z,6.02
2023-04-04T20:37:14.410Z,6.00
2023-04-04T20:39:44.086Z,5.98
2023-04-04T20:42:50.826Z,5.98
2023-04-04T20:45:28.222Z,5.96
2023-04-04T20:48:01.737Z,5.92
2023-04-04T20:50:30.029Z,5.90
2023-04-04T20:52:59.014Z,5.87
2023-04-04T20:55:28.291Z,5.82
2023-04-04T20:58:10.045Z,5.79
2023-04-04T21:00:42.220Z,5.75
2023-04-04T21:03:32.862Z,5.70
2023-04-04T21:06:15.326Z,5.68
2023-04-04T21:08:50.715Z,5.70
2023-04-04T21:11:28.837Z,5.70
2023-04-04T21:13:57.076Z,5.70
2023-04-04T21:16:27.149Z,5.68
2023-04-04T21:19:00.700Z,5.68
2023-04-04T21:21:29.721Z,5.68
2023-04-04T21:24:00.432Z,5.64
2023-04-04T21:26:32.208Z,5.58
2023-04-04T21:29:23.653Z,5.52
2023-04-04T21:31:53.981Z,5.48
2023-04-04T21:34:23.829Z,5.42
2023-04-04T21:36:55.586Z,5.44
2023-04-04T21:39:29.723Z,5.44
2023-04-04T21:41:59.840Z,5.42
2023-04-04T21:44:27.903Z,5.42
2023-04-04T21:46:56.949Z,5.40
2023-04-04T21:49:25.442Z,5.40
2023-04-04T21:51:53.596Z,5.36
2023-04-04T21:54:22.869Z,5.37
2023-04-04T21:56:51.145Z,5.40
2023-04-04T21:59:20.219Z,5.43
2023-04-04T22:01:50.219Z,5.46
2023-04-04T22:04:19.736Z,5.48
2023-04-04T22:06:47.923Z,5.50
2023-04-04T22:09:16.059Z,5.49
2023-04-04T22:11:44.601Z,5.48
2023-04-04T22:14:18.150Z,5.51
2023-04-04T22:16:46.651Z,5.51
2023-04-04T22:19:16.123Z,5.49
2023-04-04T22:21:48.364Z,5.48
2023-04-04T22:24:18.842Z,5.49
2023-04-04T22:26:47.675Z,5.51
2023-04-04T22:29:16.359Z,5.53
2023-04-04T22:31:45.760Z,5.57
2023-04-04T22:34:15.236Z,5.60
2023-04-04T22:36:46.102Z,5.59
2023-04-04T22:39:16.505Z,5.59
2023-04-04T22:41:45.152Z,5.59
2023-04-04T22:44:13.472Z,5.61
2023-04-04T22:46:41.697Z,5.61
2023-04-04T22:49:10.383Z,5.62
2023-04-04T22:51:45.118Z,5.63
2023-04-04T22:54:15.781Z,5.63
2023-04-04T22:56:44.694Z,5.60
2023-04-04T22:59:18.084Z,5.51
2023-04-04T23:01:47.659Z,5.43
2023-04-04T23:04:17.908Z,5.40
2023-04-04T23:06:46.514Z,5.33
2023-04-04T23:09:14.709Z,5.31
2023-04-04T23:11:43.023Z,5.35
2023-04-04T23:14:14.994Z,5.37
2023-04-04T23:16:44.449Z,5.34
2023-04-04T23:19:13.764Z,5.34
2023-04-04T23:21:49.477Z,5.37
2023-04-04T23:24:17.918Z,5.34
2023-04-04T23:26:46.257Z,5.28
2023-04-04T23:29:14.612Z,5.28
2023-04-04T23:31:42.679Z,5.27
2023-04-04T23:34:11.040Z,5.27
2023-04-04T23:36:39.232Z,5.18
2023-04-04T23:39:11.947Z,5.09
2023-04-04T23:41:41.032Z,5.09
2023-04-04T23:44:09.162Z,5.15
2023-04-04T23:46:37.753Z,5.21
2023-04-04T23:49:06.048Z,5.25
2023-04-04T23:51:39.209Z,5.25
2023-04-04T23:54:08.241Z,5.24
2023-04-04T23:56:36.523Z,5.19
2023-04-04T23:59:05.120Z,5.15
